La Madera, New Mexico
Current Conditions -  °F | °C
As of 10:35 PM on Wednesday 26 Nov 2014 (Local Time) from KSKX Reporting Station
Clear Clear  
Wind Chill: -7°   Ceiling: Unl
Heat Index: -3°   Visibility: 10mi
Dew Point: -7°   Wind: 7mph
Humidity: 74%   Direction: 20°NNE
Pressure: 30.46"   Gusts: NA
Location:  36.39°N, 106.04°W
Report Text: KSKX 270535Z AUTO 02006KT 10SM CLR M03/M07 A3046 RMK AO1
Loading
Personal Weather Stations






























Interactive Weather Map New forecast layout! Learn more

10-Day Weather Forecast

Advertisements
Track Severe Weather on mobile